createdAt,value
2018-10-03T00:01:12.352Z,13.42
2018-10-03T00:03:42.836Z,13.50
2018-10-03T00:06:13.068Z,13.31
2018-10-03T00:08:43.301Z,13.39
2018-10-03T00:11:14.228Z,13.49
2018-10-03T00:13:44.735Z,13.59
2018-10-03T00:16:15.299Z,13.71
2018-10-03T00:18:46.422Z,13.39
2018-10-03T00:21:16.966Z,13.46
2018-10-03T00:23:47.784Z,13.44
2018-10-03T00:26:18.333Z,13.33
2018-10-03T00:28:48.614Z,13.05
2018-10-03T00:31:19.165Z,13.06
2018-10-03T00:33:49.742Z,13.36
2018-10-03T00:36:19.978Z,13.35
2018-10-03T00:38:52.314Z,13.15
2018-10-03T00:41:22.824Z,13.35
2018-10-03T00:43:53.040Z,13.56
2018-10-03T00:46:23.799Z,13.30
2018-10-03T00:48:54.308Z,13.37
2018-10-03T00:51:24.541Z,13.25
2018-10-03T00:53:56.000Z,13.31
2018-10-03T00:56:26.540Z,13.30
2018-10-03T00:58:57.193Z,13.18
2018-10-03T01:01:28.546Z,13.29
2018-10-03T01:03:58.995Z,12.83
2018-10-03T01:06:29.556Z,13.13
2018-10-03T01:09:01.337Z,13.22
2018-10-03T01:11:31.637Z,13.56
2018-10-03T01:14:02.167Z,13.49
2018-10-03T01:16:32.744Z,13.28
2018-10-03T01:19:03.281Z,13.39
2018-10-03T01:21:33.780Z,13.40
2018-10-03T01:24:04.302Z,13.39
2018-10-03T01:26:34.891Z,13.32
2018-10-03T01:29:05.490Z,13.24
2018-10-03T01:31:36.124Z,13.16
2018-10-03T01:34:07.053Z,13.12
2018-10-03T01:36:37.778Z,13.30
2018-10-03T01:39:09.542Z,13.14
2018-10-03T01:41:40.641Z,13.31
2018-10-03T01:44:11.147Z,13.22
2018-10-03T01:46:41.727Z,13.19
2018-10-03T01:49:12.216Z,13.29
2018-10-03T01:51:42.797Z,13.05
2018-10-03T01:54:13.388Z,12.91
2018-10-03T01:56:43.912Z,12.94
2018-10-03T01:59:14.438Z,12.99
2018-10-03T02:01:45.705Z,12.84
2018-10-03T02:04:16.364Z,12.92
2018-10-03T02:06:46.906Z,13.26
2018-10-03T02:09:17.416Z,12.09
2018-10-03T02:11:47.659Z,12.99
2018-10-03T02:14:17.900Z,13.09
2018-10-03T02:16:48.407Z,13.14
2018-10-03T02:19:19.041Z,13.08
2018-10-03T02:21:49.777Z,12.99
2018-10-03T02:24:20.650Z,12.94
2018-10-03T02:26:51.204Z,12.97
2018-10-03T02:29:21.736Z,12.92
2018-10-03T02:31:52.230Z,13.04
2018-10-03T02:34:22.814Z,12.99
2018-10-03T02:36:53.548Z,12.90
2018-10-03T02:39:24.133Z,12.97
2018-10-03T02:41:54.619Z,13.01
2018-10-03T02:44:25.770Z,12.81
2018-10-03T02:46:56.501Z,10.93
2018-10-03T02:49:27.000Z,11.44
2018-10-03T02:51:57.699Z,13.04
2018-10-03T02:54:28.145Z,13.10
2018-10-03T02:56:58.737Z,12.97
2018-10-03T02:59:29.426Z,12.99
2018-10-03T03:02:00.090Z,12.62
2018-10-03T03:04:30.325Z,12.81
2018-10-03T03:07:01.139Z,12.83
2018-10-03T03:09:31.682Z,12.82
2018-10-03T03:12:02.170Z,12.51
2018-10-03T03:14:32.436Z,12.52
2018-10-03T03:17:03.094Z,12.67
2018-10-03T03:19:33.612Z,12.89
2018-10-03T03:22:04.137Z,12.95
2018-10-03T03:24:34.368Z,12.85
2018-10-03T03:27:05.342Z,13.04
2018-10-03T03:29:35.637Z,13.14
2018-10-03T03:32:06.141Z,13.01
2018-10-03T03:34:36.692Z,13.00
2018-10-03T03:37:07.509Z,12.94
2018-10-03T03:39:38.934Z,13.00
2018-10-03T03:42:09.232Z,12.87
2018-10-03T03:44:40.024Z,12.99
2018-10-03T03:47:10.310Z,13.02
2018-10-03T03:49:40.855Z,13.11
2018-10-03T03:52:11.382Z,13.00
2018-10-03T03:54:41.723Z,12.98
2018-10-03T03:57:12.380Z,12.97
2018-10-03T03:59:42.949Z,12.92
2018-10-03T04:02:13.208Z,13.05
2018-10-03T04:04:43.509Z,12.92
2018-10-03T04:07:14.139Z,12.89
2018-10-03T04:09:44.413Z,12.93
2018-10-03T04:12:14.942Z,12.88
2018-10-03T04:14:45.508Z,12.96
2018-10-03T04:17:16.038Z,13.12
2018-10-03T04:19:46.477Z,12.99
2018-10-03T04:22:17.068Z,12.99
2018-10-03T04:24:47.857Z,13.01
2018-10-03T04:27:18.428Z,13.04
2018-10-03T04:29:48.960Z,12.97
2018-10-03T04:32:19.810Z,13.09
2018-10-03T04:34:50.017Z,13.08
2018-10-03T04:37:20.520Z,13.05
2018-10-03T04:39:51.028Z,13.11
2018-10-03T04:42:21.381Z,13.10
2018-10-03T04:44:52.112Z,13.03
2018-10-03T04:47:22.692Z,13.00
2018-10-03T04:49:53.222Z,12.72
2018-10-03T04:52:23.769Z,12.58
2018-10-03T04:54:54.289Z,12.69
2018-10-03T04:57:25.079Z,12.64
2018-10-03T04:59:55.928Z,12.61
2018-10-03T05:02:26.453Z,12.70
2018-10-03T05:04:57.000Z,12.31
2018-10-03T05:07:27.817Z,12.84
2018-10-03T05:09:58.664Z,12.76
2018-10-03T05:12:29.193Z,12.90
2018-10-03T05:14:59.712Z,13.11
2018-10-03T05:17:30.243Z,13.25
2018-10-03T05:20:00.518Z,12.91
2018-10-03T05:22:31.118Z,13.01
2018-10-03T05:25:01.553Z,13.37
2018-10-03T05:27:31.888Z,13.29
2018-10-03T05:30:02.420Z,13.19
2018-10-03T05:32:32.799Z,13.32
2018-10-03T05:35:03.316Z,13.24
2018-10-03T05:37:33.852Z,13.12
2018-10-03T05:40:04.406Z,13.44
2018-10-03T05:42:35.297Z,13.69
2018-10-03T05:45:05.851Z,13.66
2018-10-03T05:47:36.879Z,13.75
2018-10-03T05:50:07.780Z,13.36
2018-10-03T05:52:38.521Z,13.64
2018-10-03T05:55:09.049Z,13.64
2018-10-03T05:57:39.917Z,13.68
2018-10-03T06:00:10.746Z,13.61
2018-10-03T06:02:43.049Z,13.61
2018-10-03T06:05:13.512Z,13.60
2018-10-03T06:07:44.112Z,13.48
2018-10-03T06:10:14.365Z,13.60
2018-10-03T06:12:44.924Z,13.63
2018-10-03T06:15:15.414Z,13.71
2018-10-03T06:17:46.037Z,13.75
2018-10-03T06:20:16.646Z,13.55
2018-10-03T06:22:47.404Z,13.68
2018-10-03T06:25:17.747Z,13.71
2018-10-03T06:27:48.424Z,13.77
2018-10-03T06:30:19.160Z,13.86
2018-10-03T06:32:49.563Z,13.82
2018-10-03T06:35:20.263Z,13.83
2018-10-03T06:37:51.201Z,13.88
2018-10-03T06:40:21.752Z,14.02
2018-10-03T06:42:52.196Z,13.90
2018-10-03T06:45:22.768Z,13.80
2018-10-03T06:47:53.280Z,13.70
2018-10-03T06:50:24.817Z,13.95
2018-10-03T06:52:55.241Z,13.87
2018-10-03T06:55:25.844Z,14.00
2018-10-03T06:57:56.375Z,14.03
2018-10-03T07:00:27.569Z,14.25
2018-10-03T07:02:58.151Z,14.07
2018-10-03T07:05:28.387Z,14.34
2018-10-03T07:07:59.088Z,14.15
2018-10-03T07:10:29.658Z,14.20
2018-10-03T07:13:00.458Z,14.24
2018-10-03T07:15:31.634Z,14.24
2018-10-03T07:18:02.161Z,14.40
2018-10-03T07:20:33.094Z,14.33
2018-10-03T07:23:03.804Z,14.45
2018-10-03T07:25:34.364Z,14.46
2018-10-03T07:28:04.923Z,14.39
2018-10-03T07:30:35.448Z,14.21
2018-10-03T07:33:06.238Z,14.37
2018-10-03T07:35:37.005Z,14.51
2018-10-03T07:38:07.867Z,14.27
2018-10-03T07:40:38.885Z,14.51
2018-10-03T07:43:09.410Z,14.36
2018-10-03T07:45:39.836Z,14.47
2018-10-03T07:48:10.445Z,14.50
2018-10-03T07:50:40.884Z,14.49
2018-10-03T07:53:11.125Z,14.57
2018-10-03T07:55:41.378Z,14.73
2018-10-03T07:58:12.168Z,14.92
2018-10-03T08:00:42.921Z,14.91
2018-10-03T08:03:14.935Z,14.58
2018-10-03T08:05:45.220Z,14.78
2018-10-03T08:08:15.435Z,14.85
2018-10-03T08:10:45.980Z,14.93
2018-10-03T08:13:16.193Z,14.91
2018-10-03T08:15:46.779Z,15.01
2018-10-03T08:18:17.333Z,15.14
2018-10-03T08:20:47.620Z,15.51
2018-10-03T08:23:18.597Z,15.29
2018-10-03T08:25:48.861Z,15.22
2018-10-03T08:28:19.426Z,15.02
2018-10-03T08:30:49.798Z,15.26
2018-10-03T08:33:20.533Z,15.10
2018-10-03T08:35:51.330Z,14.96
2018-10-03T08:38:21.581Z,15.23
2018-10-03T08:40:52.698Z,15.25
2018-10-03T08:43:23.873Z,14.83
2018-10-03T08:45:54.528Z,15.02
2018-10-03T08:48:25.227Z,14.77
2018-10-03T08:50:56.692Z,14.63
2018-10-03T08:53:27.495Z,14.55
2018-10-03T08:55:58.019Z,14.40
2018-10-03T08:58:28.795Z,14.55
2018-10-03T09:00:59.904Z,14.67
2018-10-03T09:03:30.149Z,14.74
2018-10-03T09:06:00.649Z,14.52
2018-10-03T09:08:31.736Z,14.59
2018-10-03T09:11:02.285Z,14.51
2018-10-03T09:13:32.720Z,14.76
2018-10-03T09:16:03.272Z,14.83
2018-10-03T09:18:34.034Z,14.81
2018-10-03T09:21:07.161Z,14.90
2018-10-03T09:23:38.906Z,14.85
2018-10-03T09:26:09.457Z,15.02
2018-10-03T09:28:43.615Z,14.96
2018-10-03T09:31:14.936Z,15.02
2018-10-03T09:33:45.520Z,15.22
2018-10-03T09:36:16.501Z,16.18
2018-10-03T09:38:46.899Z,16.06
2018-10-03T09:41:17.416Z,15.59
2018-10-03T09:43:47.980Z,15.98
2018-10-03T09:46:19.358Z,16.94
2018-10-03T09:48:49.900Z,17.34
2018-10-03T09:51:20.600Z,16.56
2018-10-03T09:53:51.097Z,16.97
2018-10-03T09:56:21.647Z,17.37
2018-10-03T09:58:51.890Z,19.07
2018-10-03T10:01:29.985Z,23.08
2018-10-03T10:04:02.085Z,23.80
2018-10-03T10:06:33.418Z,20.86
2018-10-03T10:09:05.526Z,21.19
2018-10-03T10:11:36.181Z,22.86
2018-10-03T10:14:08.752Z,19.82
2018-10-03T10:16:40.442Z,17.56
2018-10-03T10:19:10.702Z,17.33
2018-10-03T10:21:40.965Z,17.04
2018-10-03T10:24:12.117Z,16.83
2018-10-03T10:26:42.319Z,17.14
2018-10-03T10:29:12.561Z,17.62
2018-10-03T10:31:43.354Z,17.89
2018-10-03T10:34:13.840Z,19.34
2018-10-03T10:36:44.343Z,20.65
2018-10-03T10:39:14.579Z,19.46
2018-10-03T10:41:45.163Z,17.98
2018-10-03T10:44:15.968Z,17.19
2018-10-03T10:46:46.294Z,16.84
2018-10-03T10:49:16.993Z,16.79
2018-10-03T10:51:47.585Z,17.68
2018-10-03T10:54:18.261Z,17.25
2018-10-03T10:56:48.765Z,17.77
2018-10-03T10:59:19.481Z,17.71
2018-10-03T11:01:50.348Z,17.52
2018-10-03T11:04:20.996Z,17.47
2018-10-03T11:06:52.213Z,17.70
2018-10-03T11:09:23.216Z,17.69
2018-10-03T11:11:54.017Z,18.29
2018-10-03T11:14:24.572Z,18.26
2018-10-03T11:16:55.165Z,17.96
2018-10-03T11:19:25.653Z,17.73
2018-10-03T11:21:56.184Z,17.41
2018-10-03T11:24:27.037Z,17.33
2018-10-03T11:26:57.461Z,17.90
2018-10-03T11:29:28.311Z,18.25
2018-10-03T11:31:59.196Z,18.31
2018-10-03T11:34:30.069Z,17.66
2018-10-03T11:37:01.136Z,17.48
2018-10-03T11:39:31.981Z,17.35
2018-10-03T11:42:02.506Z,17.49
2018-10-03T11:44:32.885Z,17.54
2018-10-03T11:47:03.253Z,17.74
2018-10-03T11:49:33.775Z,17.87
2018-10-03T11:52:04.021Z,17.75
2018-10-03T11:54:34.839Z,18.00
2018-10-03T11:57:05.122Z,17.97
2018-10-03T11:59:35.944Z,17.95
2018-10-03T12:02:06.339Z,17.78
2018-10-03T12:04:36.890Z,17.77
2018-10-03T12:07:07.126Z,17.78
2018-10-03T12:09:38.360Z,17.80
2018-10-03T12:12:08.744Z,17.93
2018-10-03T12:14:40.301Z,17.95
2018-10-03T12:17:10.557Z,18.02
2018-10-03T12:19:40.788Z,17.73
2018-10-03T12:22:11.075Z,17.55
2018-10-03T12:24:41.842Z,17.66
2018-10-03T12:27:12.347Z,17.46
2018-10-03T12:29:42.883Z,17.65
2018-10-03T12:32:13.422Z,17.60
2018-10-03T12:34:44.214Z,17.78
2018-10-03T12:37:14.760Z,17.83
2018-10-03T12:39:45.814Z,18.27
2018-10-03T12:42:16.641Z,18.29
2018-10-03T12:44:49.751Z,18.48
2018-10-03T12:47:20.285Z,19.04
2018-10-03T12:49:50.552Z,18.66
2018-10-03T12:52:21.795Z,18.89
2018-10-03T12:54:52.488Z,18.93
2018-10-03T12:57:22.773Z,19.37
2018-10-03T12:59:53.333Z,19.32
2018-10-03T13:02:23.593Z,19.51
2018-10-03T13:04:53.985Z,18.92
2018-10-03T13:07:24.243Z,18.83
2018-10-03T13:09:54.937Z,18.66
2018-10-03T13:12:25.549Z,18.41
2018-10-03T13:14:55.810Z,18.53
2018-10-03T13:17:26.941Z,18.54
2018-10-03T13:19:57.484Z,18.00
2018-10-03T13:22:27.996Z,17.63
2018-10-03T13:24:58.497Z,17.66
2018-10-03T13:27:28.973Z,18.11
2018-10-03T13:29:59.500Z,18.18
2018-10-03T13:32:29.996Z,18.55
2018-10-03T13:35:00.504Z,19.02
2018-10-03T13:37:31.009Z,18.86
2018-10-03T13:40:02.390Z,18.89
2018-10-03T13:42:33.117Z,18.58
2018-10-03T13:45:03.630Z,18.37
2018-10-03T13:47:34.173Z,18.48
2018-10-03T13:50:05.052Z,18.03
2018-10-03T13:52:36.161Z,16.60
2018-10-03T13:55:06.709Z,18.30
2018-10-03T13:57:37.202Z,18.48
2018-10-03T14:00:08.670Z,18.47
2018-10-03T14:02:41.256Z,18.56
2018-10-03T14:05:11.641Z,18.18
2018-10-03T14:07:42.109Z,18.63
2018-10-03T14:10:13.023Z,18.94
2018-10-03T14:12:43.293Z,18.57
2018-10-03T14:15:13.538Z,18.00
2018-10-03T14:17:44.495Z,18.19
2018-10-03T14:20:15.262Z,17.18
2018-10-03T14:22:45.518Z,17.73
2018-10-03T14:25:15.748Z,17.93
2018-10-03T14:27:46.280Z,17.77
2018-10-03T14:30:16.772Z,17.73
2018-10-03T14:32:47.360Z,17.73
2018-10-03T14:35:18.583Z,17.67
2018-10-03T14:37:49.093Z,17.53
2018-10-03T14:40:19.942Z,17.53
2018-10-03T14:42:50.468Z,17.62
2018-10-03T14:45:21.142Z,17.67
2018-10-03T14:47:51.643Z,17.90
2018-10-03T14:50:22.177Z,17.78
2018-10-03T14:52:53.309Z,17.91
2018-10-03T14:55:23.823Z,18.06
2018-10-03T14:57:54.386Z,18.08
2018-10-03T15:00:25.395Z,18.07
2018-10-03T15:02:55.954Z,17.87
2018-10-03T15:05:26.492Z,17.90
2018-10-03T15:07:56.952Z,17.95
2018-10-03T15:10:27.526Z,17.93
2018-10-03T15:12:58.166Z,17.74
2018-10-03T15:15:28.825Z,17.64
2018-10-03T15:17:59.109Z,17.49
2018-10-03T15:20:29.574Z,17.53
2018-10-03T15:22:59.898Z,17.40
2018-10-03T15:25:30.402Z,17.47
2018-10-03T15:28:01.228Z,17.59
2018-10-03T15:30:31.486Z,17.64
2018-10-03T15:33:01.977Z,17.39
2018-10-03T15:35:32.326Z,17.25
2018-10-03T15:38:02.756Z,17.33
2018-10-03T15:40:32.990Z,17.23
2018-10-03T15:43:03.541Z,17.15
2018-10-03T15:45:34.050Z,17.13
2018-10-03T15:48:04.610Z,17.10
2018-10-03T15:50:35.334Z,17.25
2018-10-03T15:53:06.004Z,17.23
2018-10-03T15:55:36.400Z,17.13
2018-10-03T15:58:07.018Z,17.14
2018-10-03T16:00:37.366Z,17.09
2018-10-03T16:03:08.061Z,17.04
2018-10-03T16:05:38.588Z,17.04
2018-10-03T16:08:09.158Z,16.88
2018-10-03T16:10:40.255Z,16.78
2018-10-03T16:13:10.516Z,16.81
2018-10-03T16:15:40.836Z,16.67
2018-10-03T16:18:11.075Z,16.68
2018-10-03T16:20:41.343Z,16.65
2018-10-03T16:23:11.665Z,16.60
2018-10-03T16:25:42.661Z,16.60
2018-10-03T16:28:13.713Z,16.65
2018-10-03T16:30:44.538Z,16.67
2018-10-03T16:33:24.065Z,16.61
2018-10-03T16:36:02.793Z,16.62
2018-10-03T16:38:34.841Z,16.63
2018-10-03T16:41:05.700Z,16.63
2018-10-03T16:43:35.937Z,16.66
2018-10-03T16:46:07.017Z,16.66
2018-10-03T16:48:37.658Z,16.70
2018-10-03T16:51:07.914Z,16.71
2018-10-03T16:53:38.419Z,16.83
2018-10-03T16:56:09.003Z,16.72
2018-10-03T16:58:39.834Z,16.68
2018-10-03T17:01:10.445Z,16.67
2018-10-03T17:03:40.685Z,16.73
2018-10-03T17:06:11.268Z,16.70
2018-10-03T17:08:41.811Z,16.74
2018-10-03T17:11:12.082Z,16.59
2018-10-03T17:13:53.288Z,16.73
2018-10-03T17:16:23.538Z,16.72
2018-10-03T17:18:54.054Z,16.44
2018-10-03T17:21:24.568Z,16.61
2018-10-03T17:23:55.121Z,16.52
2018-10-03T17:26:25.986Z,16.44
2018-10-03T17:28:56.524Z,16.24
2018-10-03T17:31:27.007Z,16.34
2018-10-03T17:33:57.552Z,16.25
2018-10-03T17:36:28.225Z,16.30
2018-10-03T17:38:58.909Z,16.24
2018-10-03T17:41:29.454Z,16.18
2018-10-03T17:44:00.136Z,16.06
2018-10-03T17:46:30.572Z,16.05
2018-10-03T17:49:00.902Z,16.05
2018-10-03T17:51:31.329Z,16.10
2018-10-03T17:54:02.112Z,15.97
2018-10-03T17:56:33.201Z,15.97
2018-10-03T17:59:04.155Z,15.95
2018-10-03T18:01:36.432Z,15.97
2018-10-03T18:04:07.348Z,15.87
2018-10-03T18:06:38.252Z,15.95
2018-10-03T18:09:10.994Z,15.92
2018-10-03T18:11:41.678Z,15.89
2018-10-03T18:14:12.176Z,15.90
2018-10-03T18:16:42.672Z,15.82
2018-10-03T18:19:12.993Z,15.79
2018-10-03T18:21:43.237Z,15.66
2018-10-03T18:24:13.662Z,15.68
2018-10-03T18:26:44.209Z,15.69
2018-10-03T18:29:14.749Z,15.63
2018-10-03T18:31:45.839Z,15.69
2018-10-03T18:34:16.352Z,15.65
2018-10-03T18:36:46.690Z,15.71
2018-10-03T18:39:17.495Z,15.67
2018-10-03T18:41:48.162Z,15.61
2018-10-03T18:44:19.292Z,15.74
2018-10-03T18:46:50.173Z,15.56
2018-10-03T18:49:21.126Z,15.58
2018-10-03T18:51:51.715Z,15.55
2018-10-03T18:54:22.490Z,15.50
2018-10-03T18:56:53.319Z,15.54
2018-10-03T18:59:24.638Z,15.40
2018-10-03T19:01:55.337Z,15.53
2018-10-03T19:04:26.675Z,15.50
2018-10-03T19:06:57.809Z,15.56
2018-10-03T19:09:28.522Z,15.63
2018-10-03T19:12:00.509Z,15.61
2018-10-03T19:14:31.062Z,15.57
2018-10-03T19:17:01.853Z,15.34
2018-10-03T19:19:32.388Z,15.32
2018-10-03T19:22:03.072Z,15.32
2018-10-03T19:24:34.437Z,15.20
2018-10-03T19:27:05.452Z,15.21
2018-10-03T19:29:36.304Z,15.25
2018-10-03T19:32:06.904Z,15.12
2018-10-03T19:34:37.464Z,15.28
2018-10-03T19:37:08.264Z,15.30
2018-10-03T19:39:38.855Z,15.56
2018-10-03T19:42:09.250Z,15.67
2018-10-03T19:44:40.483Z,15.69
2018-10-03T19:47:11.465Z,15.59
2018-10-03T19:49:42.045Z,15.23
2018-10-03T19:52:13.821Z,14.87
2018-10-03T19:54:44.369Z,14.78
2018-10-03T19:57:15.006Z,14.62
2018-10-03T19:59:45.219Z,14.55
2018-10-03T20:02:15.439Z,14.47
2018-10-03T20:04:46.250Z,14.47
2018-10-03T20:07:18.532Z,14.48
2018-10-03T20:09:48.872Z,14.42
2018-10-03T20:12:19.109Z,14.50
2018-10-03T20:14:49.621Z,14.39
2018-10-03T20:17:19.893Z,14.34
2018-10-03T20:19:50.412Z,14.25
2018-10-03T20:22:22.081Z,14.34
2018-10-03T20:24:53.042Z,14.28
2018-10-03T20:27:24.084Z,14.32
2018-10-03T20:29:54.495Z,14.26
2018-10-03T20:32:25.118Z,14.31
2018-10-03T20:34:55.846Z,14.31
2018-10-03T20:37:26.100Z,14.22
2018-10-03T20:39:56.726Z,14.20
2018-10-03T20:42:27.259Z,14.30
2018-10-03T20:44:57.851Z,14.24
2018-10-03T20:47:28.655Z,14.24
2018-10-03T20:49:59.164Z,14.26
2018-10-03T20:52:30.058Z,14.24
2018-10-03T20:55:00.851Z,14.25
2018-10-03T20:57:31.695Z,14.18
2018-10-03T21:00:02.072Z,14.13
2018-10-03T21:02:32.396Z,14.26
2018-10-03T21:05:02.925Z,14.26
2018-10-03T21:07:34.755Z,14.36
2018-10-03T21:10:05.392Z,14.45
2018-10-03T21:12:36.388Z,14.40
2018-10-03T21:15:07.024Z,14.36
2018-10-03T21:17:37.692Z,14.39
2018-10-03T21:20:08.237Z,14.48
2018-10-03T21:22:38.938Z,14.32
2018-10-03T21:25:09.182Z,14.19
2018-10-03T21:27:39.578Z,14.30
2018-10-03T21:30:10.448Z,14.31
2018-10-03T21:32:40.719Z,14.43
2018-10-03T21:35:11.144Z,14.51
2018-10-03T21:37:41.982Z,14.45
2018-10-03T21:40:12.516Z,14.37
2018-10-03T21:42:43.044Z,14.45
2018-10-03T21:45:13.725Z,14.33
2018-10-03T21:47:44.909Z,14.28
2018-10-03T21:50:17.970Z,14.35
2018-10-03T21:52:49.533Z,14.47
2018-10-03T21:55:22.226Z,14.48
2018-10-03T21:57:53.913Z,14.62
2018-10-03T22:00:30.233Z,14.58
2018-10-03T22:03:05.216Z,14.67
2018-10-03T22:05:35.671Z,14.39
2018-10-03T22:08:06.670Z,14.30
2018-10-03T22:10:36.933Z,14.28
2018-10-03T22:13:07.450Z,14.30
2018-10-03T22:15:38.044Z,14.36
2018-10-03T22:18:08.554Z,14.42
2018-10-03T22:20:40.173Z,14.32
2018-10-03T22:23:10.796Z,14.40
2018-10-03T22:25:41.470Z,14.43
2018-10-03T22:28:12.429Z,14.36
2018-10-03T22:30:42.928Z,14.46
2018-10-03T22:33:19.135Z,14.32
2018-10-03T22:35:50.411Z,14.20
2018-10-03T22:38:20.789Z,14.36
2018-10-03T22:40:51.350Z,14.17
2018-10-03T22:43:21.860Z,14.44
2018-10-03T22:45:52.476Z,14.39
2018-10-03T22:48:23.054Z,14.35
2018-10-03T22:50:53.396Z,14.28
2018-10-03T22:53:23.929Z,14.32
2018-10-03T22:55:54.830Z,14.27
2018-10-03T22:58:25.915Z,14.14
2018-10-03T23:00:56.724Z,14.16
2018-10-03T23:03:27.332Z,14.23
2018-10-03T23:05:57.971Z,14.19
2018-10-03T23:08:28.678Z,14.28
2018-10-03T23:10:58.935Z,14.11
2018-10-03T23:13:29.465Z,14.12
2018-10-03T23:16:00.351Z,14.20
2018-10-03T23:18:30.881Z,14.22
2018-10-03T23:21:01.611Z,14.17
2018-10-03T23:23:32.012Z,14.01
2018-10-03T23:26:02.259Z,13.96
2018-10-03T23:28:33.321Z,13.88
2018-10-03T23:31:04.152Z,13.91
2018-10-03T23:33:34.902Z,13.93
2018-10-03T23:36:06.059Z,13.89
2018-10-03T23:38:36.595Z,13.92
2018-10-03T23:41:07.366Z,13.91
2018-10-03T23:43:42.100Z,13.70
2018-10-03T23:46:12.516Z,13.77
2018-10-03T23:48:43.148Z,13.60
2018-10-03T23:51:13.677Z,13.73
2018-10-03T23:53:44.393Z,13.76
2018-10-03T23:56:16.437Z,13.52
2018-10-03T23:58:46.983Z,13.55
